createdAt,value
2023-03-31T00:00:24.130Z,34.30
2023-03-31T00:02:54.160Z,35.00
2023-03-31T00:05:21.534Z,34.80
2023-03-31T00:07:48.781Z,33.60
2023-03-31T00:10:19.420Z,33.20
2023-03-31T00:12:47.176Z,33.60
2023-03-31T00:15:14.637Z,33.80
2023-03-31T00:17:41.620Z,34.00
2023-03-31T00:20:12.611Z,33.20
2023-03-31T00:22:42.587Z,33.30
2023-03-31T00:25:11.363Z,33.30
2023-03-31T00:27:38.914Z,32.30
2023-03-31T00:30:06.677Z,31.60
2023-03-31T00:32:33.675Z,31.40
2023-03-31T00:35:02.543Z,31.50
2023-03-31T00:37:30.404Z,31.60
2023-03-31T00:39:57.958Z,32.00
2023-03-31T00:42:25.004Z,33.30
2023-03-31T00:45:17.091Z,34.80
2023-03-31T00:47:51.615Z,35.10
2023-03-31T00:50:27.094Z,34.80
2023-03-31T00:52:58.650Z,33.70
2023-03-31T00:55:40.089Z,33.00
2023-03-31T00:58:08.716Z,32.50
2023-03-31T01:00:35.683Z,33.40
2023-03-31T01:03:07.992Z,34.10
2023-03-31T01:05:50.904Z,34.50
2023-03-31T01:08:19.971Z,33.50
2023-03-31T01:10:55.518Z,33.90
2023-03-31T01:13:24.408Z,34.60
2023-03-31T01:15:51.775Z,34.10
2023-03-31T01:18:22.153Z,34.20
2023-03-31T01:21:19.033Z,34.30
2023-03-31T01:24:04.702Z,35.30
2023-03-31T01:26:43.271Z,36.00
2023-03-31T01:29:27.826Z,36.70
2023-03-31T01:32:07.604Z,35.80
2023-03-31T01:34:40.841Z,35.30
2023-03-31T01:37:29.459Z,34.90
2023-03-31T01:40:37.667Z,35.50
2023-03-31T01:43:18.151Z,34.80
2023-03-31T01:46:10.005Z,35.10
2023-03-31T01:49:02.346Z,34.00
2023-03-31T01:51:52.222Z,33.70
2023-03-31T01:54:47.229Z,33.60
2023-03-31T01:57:41.709Z,33.10
2023-03-31T02:00:15.818Z,33.60
2023-03-31T02:02:55.083Z,34.40
2023-03-31T02:05:27.973Z,33.50
2023-03-31T02:08:08.663Z,34.10
2023-03-31T02:10:36.917Z,33.70
2023-03-31T02:13:05.874Z,33.70
2023-03-31T02:15:39.838Z,33.90
2023-03-31T02:18:11.535Z,33.10
2023-03-31T02:20:42.339Z,33.10
2023-03-31T02:23:13.079Z,33.50
2023-03-31T02:25:49.157Z,33.60
2023-03-31T02:28:21.981Z,33.90
2023-03-31T02:30:58.957Z,33.70
2023-03-31T02:33:26.073Z,34.40
2023-03-31T02:35:53.292Z,34.00
2023-03-31T02:38:20.931Z,33.90
2023-03-31T02:40:48.139Z,33.50
2023-03-31T02:43:15.465Z,34.00
2023-03-31T02:45:46.900Z,34.10
2023-03-31T02:48:25.280Z,33.90
2023-03-31T02:51:11.120Z,33.80
2023-03-31T02:53:48.899Z,33.20
2023-03-31T02:56:38.982Z,33.50
2023-03-31T02:59:27.687Z,33.70
2023-03-31T03:02:06.806Z,32.80
2023-03-31T03:04:49.816Z,33.00
2023-03-31T03:07:19.578Z,32.70
2023-03-31T03:09:49.268Z,32.20
2023-03-31T03:12:28.318Z,32.20
2023-03-31T03:15:09.621Z,32.00
2023-03-31T03:17:42.522Z,31.70
2023-03-31T03:20:11.780Z,31.20
2023-03-31T03:22:40.179Z,30.90
2023-03-31T03:25:09.624Z,30.90
2023-03-31T03:27:37.342Z,31.70
2023-03-31T03:30:06.609Z,31.00
2023-03-31T03:32:33.880Z,30.60
2023-03-31T03:35:01.954Z,29.70
2023-03-31T03:37:29.891Z,29.00
2023-03-31T03:39:56.844Z,29.10
2023-03-31T03:42:24.145Z,28.50
2023-03-31T03:44:51.183Z,29.40
2023-03-31T03:47:21.005Z,29.90
2023-03-31T03:49:49.740Z,29.90
2023-03-31T03:52:17.071Z,29.40
2023-03-31T03:54:44.158Z,29.90
2023-03-31T03:57:11.367Z,29.80
2023-03-31T03:59:38.402Z,30.90
2023-03-31T04:02:05.858Z,30.30
2023-03-31T04:04:32.969Z,30.60
2023-03-31T04:07:00.039Z,30.80
2023-03-31T04:09:27.040Z,31.50
2023-03-31T04:11:54.232Z,31.60
2023-03-31T04:14:21.398Z,31.30
2023-03-31T04:16:48.611Z,30.40
2023-03-31T04:19:19.148Z,29.50
2023-03-31T04:21:46.488Z,29.40
2023-03-31T04:24:16.049Z,29.80
2023-03-31T04:26:43.548Z,29.90
2023-03-31T04:29:16.712Z,31.00
2023-03-31T04:31:44.489Z,31.60
2023-03-31T04:34:15.794Z,30.60
2023-03-31T04:36:47.981Z,30.00
2023-03-31T04:39:17.066Z,30.10
2023-03-31T04:41:44.939Z,30.60
2023-03-31T04:44:12.043Z,31.10
2023-03-31T04:46:39.018Z,30.60
2023-03-31T04:49:06.042Z,30.60
2023-03-31T04:51:33.235Z,30.00
2023-03-31T04:54:00.487Z,29.30
2023-03-31T04:56:27.708Z,29.00
2023-03-31T04:58:54.778Z,29.50
2023-03-31T05:01:21.889Z,29.60
2023-03-31T05:03:48.897Z,29.40
2023-03-31T05:06:17.394Z,29.70
2023-03-31T05:08:45.144Z,29.20
2023-03-31T05:11:12.182Z,29.00
2023-03-31T05:13:39.181Z,29.40
2023-03-31T05:16:11.057Z,29.50
2023-03-31T05:18:38.517Z,29.70
2023-03-31T05:21:15.686Z,29.40
2023-03-31T05:23:43.560Z,30.60
2023-03-31T05:26:12.127Z,31.60
2023-03-31T05:28:39.427Z,32.30
2023-03-31T05:31:08.756Z,32.50
2023-03-31T05:33:40.436Z,32.80
2023-03-31T05:36:12.550Z,32.80
2023-03-31T05:38:40.524Z,33.80
2023-03-31T05:41:09.609Z,34.70
2023-03-31T05:43:37.693Z,34.80
2023-03-31T05:46:05.177Z,34.50
2023-03-31T05:48:32.583Z,35.30
2023-03-31T05:51:01.869Z,36.00
2023-03-31T05:53:29.794Z,36.60
2023-03-31T05:55:58.826Z,36.70
2023-03-31T05:58:26.723Z,36.40
2023-03-31T06:01:16.357Z,35.30
2023-03-31T06:03:45.645Z,34.90
2023-03-31T06:06:13.454Z,34.20
2023-03-31T06:08:40.913Z,32.90
2023-03-31T06:11:09.712Z,32.60
2023-03-31T06:13:37.984Z,32.60
2023-03-31T06:16:07.013Z,32.40
2023-03-31T06:18:35.616Z,32.40
2023-03-31T06:21:05.862Z,32.70
2023-03-31T06:23:33.709Z,33.30
2023-03-31T06:26:07.324Z,34.40
2023-03-31T06:28:35.568Z,34.70
2023-03-31T06:31:12.779Z,35.20
2023-03-31T06:33:41.301Z,33.80
2023-03-31T06:36:09.750Z,33.40
2023-03-31T06:38:40.714Z,33.70
2023-03-31T06:41:09.467Z,34.20
2023-03-31T06:43:38.495Z,34.70
2023-03-31T06:46:07.126Z,34.30
2023-03-31T06:48:34.587Z,35.40
2023-03-31T06:51:03.993Z,35.50
2023-03-31T06:53:31.088Z,34.20
2023-03-31T06:55:58.514Z,34.20
2023-03-31T06:58:26.387Z,34.10
2023-03-31T07:00:54.859Z,34.80
2023-03-31T07:03:25.504Z,34.80
2023-03-31T07:05:53.312Z,35.00
2023-03-31T07:08:21.648Z,34.00
2023-03-31T07:10:50.521Z,33.80
2023-03-31T07:13:18.524Z,33.40
2023-03-31T07:15:48.946Z,33.50
2023-03-31T07:18:17.396Z,32.80
2023-03-31T07:20:44.470Z,33.40
2023-03-31T07:23:11.638Z,32.70
2023-03-31T07:25:38.638Z,32.50
2023-03-31T07:28:06.779Z,31.40
2023-03-31T07:30:34.085Z,30.90
2023-03-31T07:33:02.505Z,30.80
2023-03-31T07:35:31.121Z,31.00
2023-03-31T07:37:58.597Z,31.60
2023-03-31T07:40:28.056Z,32.00
2023-03-31T07:42:55.203Z,31.10
2023-03-31T07:45:24.903Z,31.00
2023-03-31T07:47:52.739Z,31.20
2023-03-31T07:50:21.582Z,30.70
2023-03-31T07:52:48.635Z,30.40
2023-03-31T07:55:16.788Z,29.80
2023-03-31T07:57:46.398Z,29.70
2023-03-31T08:00:14.704Z,29.70
2023-03-31T08:02:45.782Z,29.70
2023-03-31T08:05:13.686Z,29.30
2023-03-31T08:07:43.021Z,29.30
2023-03-31T08:10:13.445Z,29.70
2023-03-31T08:12:40.957Z,29.30
2023-03-31T08:15:08.730Z,30.30
2023-03-31T08:17:36.270Z,30.90
2023-03-31T08:20:08.037Z,30.00
2023-03-31T08:22:35.641Z,30.70
2023-03-31T08:25:03.612Z,31.50
2023-03-31T08:27:37.452Z,32.10
2023-03-31T08:30:06.733Z,32.80
2023-03-31T08:32:34.991Z,32.60
2023-03-31T08:35:02.351Z,32.00
2023-03-31T08:37:29.615Z,31.60
2023-03-31T08:39:56.665Z,30.40
2023-03-31T08:42:42.330Z,30.00
2023-03-31T08:45:47.075Z,29.60
2023-03-31T08:48:48.941Z,28.90
2023-03-31T08:51:25.363Z,29.40
2023-03-31T08:54:03.703Z,30.00
2023-03-31T08:56:39.405Z,29.80
2023-03-31T08:59:16.750Z,29.50
2023-03-31T09:02:02.141Z,29.50
2023-03-31T09:05:11.586Z,29.40
2023-03-31T09:08:18.919Z,30.80
2023-03-31T09:10:54.847Z,30.00
2023-03-31T09:13:32.938Z,30.60
2023-03-31T09:16:16.801Z,29.80
2023-03-31T09:18:47.234Z,30.50
2023-03-31T09:21:20.027Z,30.70
2023-03-31T09:23:46.966Z,31.10
2023-03-31T09:26:32.730Z,30.60
2023-03-31T09:29:01.817Z,30.60
2023-03-31T09:31:29.004Z,30.20
2023-03-31T09:34:01.665Z,29.80
2023-03-31T09:36:29.225Z,29.40
2023-03-31T09:38:56.310Z,29.30
2023-03-31T09:41:23.317Z,29.30
2023-03-31T09:43:51.503Z,28.80
2023-03-31T09:46:50.421Z,28.90
2023-03-31T09:49:21.954Z,28.50
2023-03-31T09:52:20.511Z,28.40
2023-03-31T09:54:52.065Z,28.00
2023-03-31T09:57:39.231Z,28.00
2023-03-31T10:00:16.814Z,27.50
2023-03-31T10:02:51.966Z,27.90
2023-03-31T10:05:38.351Z,28.40
2023-03-31T10:08:11.566Z,27.40
2023-03-31T10:10:38.761Z,26.60
2023-03-31T10:13:10.841Z,25.80
2023-03-31T10:15:40.980Z,25.10
2023-03-31T10:18:18.358Z,24.90
2023-03-31T10:20:52.868Z,24.60
2023-03-31T10:23:30.387Z,24.30
2023-03-31T10:25:57.609Z,24.60
2023-03-31T10:28:25.573Z,24.30
2023-03-31T10:31:04.541Z,23.90
2023-03-31T10:33:36.564Z,24.70
2023-03-31T10:36:13.128Z,25.30
2023-03-31T10:38:45.199Z,25.30
2023-03-31T10:41:18.144Z,24.70
2023-03-31T10:44:05.523Z,24.40
2023-03-31T10:46:50.245Z,25.60
2023-03-31T10:49:26.635Z,25.80
2023-03-31T10:51:56.480Z,25.90
2023-03-31T10:54:23.980Z,25.80
2023-03-31T10:57:03.476Z,25.70
2023-03-31T10:59:47.246Z,25.60
2023-03-31T11:02:29.934Z,25.60
2023-03-31T11:05:46.058Z,25.80
2023-03-31T11:08:33.747Z,25.00
2023-03-31T11:11:26.831Z,24.30
2023-03-31T11:13:57.070Z,24.10
2023-03-31T11:16:52.611Z,24.60
2023-03-31T11:19:37.973Z,24.50
2023-03-31T11:22:31.884Z,24.60
2023-03-31T11:25:24.954Z,24.90
2023-03-31T11:28:10.600Z,25.40
2023-03-31T11:30:42.653Z,24.60
2023-03-31T11:33:53.640Z,24.80
2023-03-31T11:36:37.074Z,24.60
2023-03-31T11:39:31.639Z,24.20
2023-03-31T11:42:06.043Z,24.80
2023-03-31T11:44:55.913Z,24.90
2023-03-31T11:47:31.368Z,24.70
2023-03-31T11:50:07.480Z,24.40
2023-03-31T11:52:37.997Z,23.70
2023-03-31T11:55:17.142Z,23.40
2023-03-31T11:57:51.984Z,23.30
2023-03-31T12:00:27.507Z,23.80
2023-03-31T12:03:25.019Z,23.80
2023-03-31T12:06:04.587Z,24.00
2023-03-31T12:09:05.100Z,24.60
2023-03-31T12:11:36.088Z,24.80
2023-03-31T12:14:29.350Z,24.70
2023-03-31T12:17:14.878Z,24.40
2023-03-31T12:20:01.255Z,24.30
2023-03-31T12:22:48.870Z,23.50
2023-03-31T12:25:22.993Z,23.70
2023-03-31T12:27:51.670Z,23.80
2023-03-31T12:30:42.376Z,22.50
2023-03-31T12:33:40.903Z,22.30
2023-03-31T12:36:17.276Z,22.50
2023-03-31T12:39:10.114Z,21.60
2023-03-31T12:41:55.823Z,20.70
2023-03-31T12:44:48.305Z,21.20
2023-03-31T12:47:29.913Z,21.10
2023-03-31T12:50:15.671Z,21.20
2023-03-31T12:53:05.856Z,21.60
2023-03-31T12:55:48.820Z,21.90
2023-03-31T12:58:25.026Z,21.70
2023-03-31T13:01:06.642Z,22.20
2023-03-31T13:04:04.730Z,21.70
2023-03-31T13:06:31.679Z,21.50
2023-03-31T13:09:02.718Z,21.50
2023-03-31T13:11:38.845Z,21.40
2023-03-31T13:14:36.443Z,21.70
2023-03-31T13:17:24.853Z,21.60
2023-03-31T13:19:53.645Z,21.90
2023-03-31T13:22:38.061Z,22.40
2023-03-31T13:25:33.443Z,23.90
2023-03-31T13:28:22.209Z,24.30
2023-03-31T13:30:58.214Z,24.30
2023-03-31T13:33:34.096Z,24.50
2023-03-31T13:36:19.206Z,24.20
2023-03-31T13:39:20.027Z,23.90
2023-03-31T13:42:06.136Z,23.60
2023-03-31T13:44:42.551Z,23.20
2023-03-31T13:47:31.608Z,23.00
2023-03-31T13:50:15.273Z,23.10
2023-03-31T13:52:56.836Z,23.10
2023-03-31T13:56:01.152Z,22.60
2023-03-31T13:59:06.779Z,22.20
2023-03-31T14:01:37.920Z,22.20
2023-03-31T14:04:36.157Z,22.10
2023-03-31T14:07:13.565Z,22.20
2023-03-31T14:09:49.712Z,22.20
2023-03-31T14:12:34.370Z,22.30
2023-03-31T14:15:02.006Z,22.20
2023-03-31T14:17:31.628Z,22.00
2023-03-31T14:20:20.421Z,22.10
2023-03-31T14:22:48.792Z,22.70
2023-03-31T14:25:36.925Z,23.50
2023-03-31T14:28:36.220Z,23.30
2023-03-31T14:31:29.246Z,23.60
2023-03-31T14:34:17.251Z,23.60
2023-03-31T14:37:08.474Z,23.10
2023-03-31T14:39:37.106Z,23.30
2023-03-31T14:42:13.412Z,23.40
2023-03-31T14:44:42.792Z,23.30
2023-03-31T14:47:24.775Z,23.80
2023-03-31T14:50:16.352Z,23.60
2023-03-31T14:52:52.507Z,23.30
2023-03-31T14:55:28.613Z,23.60
2023-03-31T14:58:03.387Z,23.80
2023-03-31T15:00:34.678Z,23.90
2023-03-31T15:03:04.289Z,24.10
2023-03-31T15:05:34.387Z,23.80
2023-03-31T15:08:23.045Z,23.50
2023-03-31T15:11:11.982Z,23.50
2023-03-31T15:13:52.996Z,23.50
2023-03-31T15:16:43.886Z,23.50
2023-03-31T15:19:19.069Z,23.70
2023-03-31T15:21:46.666Z,23.50
2023-03-31T15:24:16.741Z,23.20
2023-03-31T15:27:06.650Z,22.90
2023-03-31T15:29:49.386Z,22.70
2023-03-31T15:32:37.957Z,22.80
2023-03-31T15:37:36.580Z,23.00
2023-03-31T15:40:09.765Z,23.10
2023-03-31T15:42:39.408Z,23.10
2023-03-31T15:45:22.335Z,23.30
2023-03-31T15:47:55.503Z,23.40
2023-03-31T15:50:23.744Z,23.20
2023-03-31T15:52:53.602Z,23.10
2023-03-31T15:55:23.731Z,23.40
2023-03-31T15:57:52.040Z,23.10
2023-03-31T16:00:47.373Z,23.10
2023-03-31T16:03:17.230Z,23.20
2023-03-31T16:05:54.454Z,24.00
2023-03-31T16:08:38.220Z,23.60
2023-03-31T16:11:09.807Z,23.70
2023-03-31T16:13:40.858Z,24.00
2023-03-31T16:16:11.848Z,24.10
2023-03-31T16:18:51.688Z,23.90
2023-03-31T16:21:29.179Z,23.90
2023-03-31T16:23:58.584Z,24.70
2023-03-31T16:26:28.642Z,25.60
2023-03-31T16:28:58.364Z,26.00
2023-03-31T16:31:34.777Z,26.40
2023-03-31T16:34:05.894Z,26.40
2023-03-31T16:36:32.833Z,26.20
2023-03-31T16:39:02.274Z,26.30
2023-03-31T16:41:29.801Z,26.10
2023-03-31T16:43:57.153Z,26.20
2023-03-31T16:46:24.931Z,26.20
2023-03-31T16:48:53.258Z,26.10
2023-03-31T16:51:20.570Z,26.10
2023-03-31T16:53:48.369Z,25.90
2023-03-31T16:56:18.124Z,26.10
2023-03-31T16:58:45.383Z,26.60
2023-03-31T17:01:12.942Z,26.60
2023-03-31T17:03:42.008Z,26.70
2023-03-31T17:06:12.576Z,26.60
2023-03-31T17:08:39.992Z,26.80
2023-03-31T17:11:12.403Z,27.70
2023-03-31T17:13:41.801Z,27.80
2023-03-31T17:16:20.204Z,27.40
2023-03-31T17:18:51.511Z,27.00
2023-03-31T17:21:19.410Z,26.70
2023-03-31T17:23:46.814Z,26.50
2023-03-31T17:26:15.585Z,26.60
2023-03-31T17:28:42.735Z,26.90
2023-03-31T17:31:17.922Z,27.00
2023-03-31T17:33:45.106Z,27.00
2023-03-31T17:36:12.799Z,26.90
2023-03-31T17:38:40.442Z,26.70
2023-03-31T17:41:10.262Z,26.80
2023-03-31T17:43:38.314Z,27.20
2023-03-31T17:46:13.727Z,27.30
2023-03-31T17:48:41.583Z,27.70
2023-03-31T17:51:12.160Z,28.00
2023-03-31T17:53:42.168Z,27.90
2023-03-31T17:56:09.452Z,27.90
2023-03-31T17:58:36.501Z,28.50
2023-03-31T18:01:09.031Z,28.40
2023-03-31T18:03:36.668Z,28.20
2023-03-31T18:06:11.885Z,27.70
2023-03-31T18:08:40.152Z,27.50
2023-03-31T18:11:08.562Z,28.10
2023-03-31T18:13:36.570Z,28.30
2023-03-31T18:16:07.754Z,28.60
2023-03-31T18:18:35.707Z,28.40
2023-03-31T18:21:13.442Z,28.10
2023-03-31T18:23:41.422Z,28.40
2023-03-31T18:26:11.520Z,28.70
2023-03-31T18:28:40.828Z,29.30
2023-03-31T18:31:10.042Z,28.90
2023-03-31T18:33:37.818Z,28.80
2023-03-31T18:36:07.275Z,29.60
2023-03-31T18:38:36.952Z,29.80
2023-03-31T18:41:04.232Z,28.60
2023-03-31T18:43:32.796Z,29.80
2023-03-31T18:46:01.412Z,29.70
2023-03-31T18:48:29.344Z,28.50
2023-03-31T18:50:56.713Z,28.70
2023-03-31T18:53:24.920Z,28.70
2023-03-31T18:55:57.499Z,28.50
2023-03-31T18:58:26.496Z,28.90
2023-03-31T19:00:53.529Z,28.80
2023-03-31T19:03:21.397Z,28.00
2023-03-31T19:05:48.791Z,28.80
2023-03-31T19:08:16.304Z,28.30
2023-03-31T19:10:43.909Z,28.00
2023-03-31T19:13:15.998Z,27.60
2023-03-31T19:15:43.214Z,27.60
2023-03-31T19:18:15.550Z,27.80
2023-03-31T19:20:43.432Z,28.00
2023-03-31T19:23:11.221Z,28.10
2023-03-31T19:25:40.012Z,27.90
2023-03-31T19:28:07.208Z,27.90
2023-03-31T19:30:34.516Z,27.70
2023-03-31T19:33:03.256Z,27.60
2023-03-31T19:35:30.593Z,27.40
2023-03-31T19:37:57.846Z,27.50
2023-03-31T19:40:25.000Z,27.30
2023-03-31T19:42:52.244Z,27.60
2023-03-31T19:45:19.486Z,27.10
2023-03-31T19:47:46.679Z,27.50
2023-03-31T19:50:13.846Z,27.10
2023-03-31T19:52:40.856Z,27.80
2023-03-31T19:55:08.036Z,28.00
2023-03-31T19:57:35.079Z,27.60
2023-03-31T20:00:04.125Z,27.80
2023-03-31T20:02:32.861Z,27.80
2023-03-31T20:05:00.195Z,27.90
2023-03-31T20:07:27.306Z,27.60
2023-03-31T20:09:54.462Z,27.30
2023-03-31T20:12:21.794Z,27.50
2023-03-31T20:14:48.738Z,27.20
2023-03-31T20:17:16.985Z,27.40
2023-03-31T20:19:45.168Z,27.20
2023-03-31T20:22:12.734Z,27.60
2023-03-31T20:24:39.793Z,27.40
2023-03-31T20:27:06.966Z,27.40
2023-03-31T20:29:34.000Z,27.90
2023-03-31T20:32:02.663Z,27.40
2023-03-31T20:34:29.756Z,28.30
2023-03-31T20:36:57.275Z,27.40
2023-03-31T20:39:24.279Z,26.90
2023-03-31T20:41:52.282Z,26.80
2023-03-31T20:44:19.442Z,27.00
2023-03-31T20:46:46.731Z,26.70
2023-03-31T20:49:14.214Z,26.60
2023-03-31T20:51:42.954Z,26.70
2023-03-31T20:54:10.076Z,26.60
2023-03-31T20:56:40.552Z,26.40
2023-03-31T20:59:11.217Z,26.00
2023-03-31T21:01:38.789Z,26.30
2023-03-31T21:04:08.940Z,26.50
2023-03-31T21:06:44.824Z,26.40
2023-03-31T21:09:13.070Z,26.40
2023-03-31T21:11:40.964Z,26.30
2023-03-31T21:14:11.647Z,26.50
2023-03-31T21:16:40.291Z,26.60
2023-03-31T21:19:07.602Z,26.80
2023-03-31T21:21:36.059Z,27.10
2023-03-31T21:24:03.275Z,26.60
2023-03-31T21:26:30.505Z,26.40
2023-03-31T21:28:57.564Z,26.10
2023-03-31T21:31:25.691Z,26.30
2023-03-31T21:33:56.648Z,26.80
2023-03-31T21:36:24.988Z,26.90
2023-03-31T21:38:57.534Z,26.70
2023-03-31T21:41:28.292Z,26.60
2023-03-31T21:43:56.149Z,26.50
2023-03-31T21:46:27.289Z,26.30
2023-03-31T21:48:55.576Z,26.30
2023-03-31T21:51:23.139Z,26.20
2023-03-31T21:53:53.217Z,26.10
2023-03-31T21:56:20.303Z,26.30
2023-03-31T21:58:47.460Z,26.10
2023-03-31T22:01:14.894Z,26.10
2023-03-31T22:03:44.692Z,26.00
2023-03-31T22:06:12.574Z,25.80
2023-03-31T22:08:39.631Z,26.20
2023-03-31T22:11:08.509Z,25.90
2023-03-31T22:13:36.074Z,26.50
2023-03-31T22:16:06.183Z,26.30
2023-03-31T22:18:33.763Z,26.30
2023-03-31T22:21:02.535Z,25.80
2023-03-31T22:23:29.768Z,25.60
2023-03-31T22:25:56.815Z,26.00
2023-03-31T22:28:23.810Z,26.00
2023-03-31T22:30:51.509Z,26.00
2023-03-31T22:33:18.680Z,26.50
2023-03-31T22:35:45.907Z,26.30
2023-03-31T22:38:14.102Z,26.40
2023-03-31T22:40:41.507Z,26.50
2023-03-31T22:43:08.839Z,26.60
2023-03-31T22:45:38.020Z,26.40
2023-03-31T22:48:07.397Z,26.40
2023-03-31T22:50:35.098Z,26.40
2023-03-31T22:53:02.463Z,27.10
2023-03-31T22:55:29.789Z,26.60
2023-03-31T22:57:57.138Z,26.10
2023-03-31T23:00:24.129Z,25.90
2023-03-31T23:02:51.403Z,25.70
2023-03-31T23:05:18.960Z,26.20
2023-03-31T23:07:46.025Z,26.20
2023-03-31T23:10:13.092Z,26.00
2023-03-31T23:12:40.039Z,25.70
2023-03-31T23:15:07.527Z,25.70
2023-03-31T23:17:34.560Z,26.40
2023-03-31T23:20:02.106Z,26.40
2023-03-31T23:22:29.176Z,26.00
2023-03-31T23:24:56.161Z,26.00
2023-03-31T23:27:23.533Z,25.90
2023-03-31T23:29:50.596Z,26.00
2023-03-31T23:32:17.726Z,26.00
2023-03-31T23:34:44.870Z,26.20
2023-03-31T23:37:14.089Z,25.60
2023-03-31T23:39:41.919Z,25.20
2023-03-31T23:42:10.192Z,25.30
2023-03-31T23:44:39.914Z,26.10
2023-03-31T23:47:06.943Z,25.90
2023-03-31T23:49:34.040Z,26.10
2023-03-31T23:52:01.370Z,26.10
2023-03-31T23:54:29.011Z,26.00
2023-03-31T23:56:56.560Z,26.60
2023-03-31T23:59:23.596Z,25.70
